Time;durP1;ratioP1;P1;durP2;ratioP2;P2;SDS_P1;SDS_P2;PMS_P1;PMS_P2;Temp;Humidity;BMP_temperature;BMP_pressure;BME280_temperature;BME280_humidity;BME280_pressure;Samples;Min_cycle;Max_cycle;Signal;HPM_P1;HPM_P2
2021/12/27 00:00:18;;;;;;;1.17;1.10;;;6.60;98.00;;;;;;5072701;28;20519;-71
2021/12/27 00:02:46;;;;;;;1.27;1.20;;;6.60;98.00;;;;;;5072499;28;20500;-69
2021/12/27 00:05:13;;;;;;;2.73;1.77;;;6.60;98.00;;;;;;5072416;28;20535;-69
2021/12/27 00:07:41;;;;;;;5.53;1.33;;;6.60;98.00;;;;;;5072144;28;20456;-69
2021/12/27 00:10:09;;;;;;;1.10;0.90;;;6.60;98.00;;;;;;5071809;28;20906;-70
2021/12/27 00:12:36;;;;;;;1.27;1.23;;;6.70;98.00;;;;;;5071921;28;20535;-70
2021/12/27 00:15:04;;;;;;;1.20;1.10;;;6.80;98.00;;;;;;5072335;28;20529;-70
2021/12/27 00:17:32;;;;;;;1.77;1.10;;;6.80;98.00;;;;;;5072500;28;20515;-70
2021/12/27 00:19:59;;;;;;;1.27;1.20;;;6.70;98.00;;;;;;5072091;28;21029;-69
2021/12/27 00:22:26;;;;;;;1.20;1.10;;;6.70;98.00;;;;;;5072259;28;20497;-70
2021/12/27 00:24:53;;;;;;;1.67;1.20;;;6.70;98.00;;;;;;5072343;28;20944;-70
2021/12/27 00:27:22;;;;;;;1.10;1.00;;;6.70;98.00;;;;;;5072306;28;20496;-69
2021/12/27 00:29:51;;;;;;;1.20;1.10;;;6.70;98.00;;;;;;5072097;28;20457;-70
2021/12/27 00:32:18;;;;;;;1.10;1.07;;;6.70;98.00;;;;;;5072228;28;20475;-70
2021/12/27 00:34:47;;;;;;;1.17;1.00;;;6.90;98.00;;;;;;5072094;28;20578;-70
2021/12/27 00:37:14;;;;;;;1.30;1.10;;;6.90;98.00;;;;;;5072224;28;21002;-70
2021/12/27 00:39:41;;;;;;;1.40;1.13;;;6.90;98.00;;;;;;5072088;28;20498;-70
2021/12/27 00:42:08;;;;;;;1.60;1.33;;;6.80;98.00;;;;;;5072337;28;20458;-70
2021/12/27 00:44:35;;;;;;;1.10;1.10;;;6.80;98.00;;;;;;5072091;28;20562;-70
2021/12/27 00:47:03;;;;;;;1.63;1.60;;;6.70;98.00;;;;;;5072206;28;20456;-69
2021/12/27 00:49:30;;;;;;;1.20;1.00;;;6.70;98.00;;;;;;5072091;28;20553;-69
2021/12/27 00:52:00;;;;;;;1.30;1.00;;;6.70;98.00;;;;;;5070585;28;20553;-69
2021/12/27 00:54:30;;;;;;;1.70;1.13;;;6.70;98.00;;;;;;5071803;28;20971;-70
2021/12/27 00:56:57;;;;;;;1.10;0.97;;;6.70;98.00;;;;;;5071917;28;21030;-69
2021/12/27 00:59:24;;;;;;;6.40;2.30;;;6.70;98.00;;;;;;5071897;28;20496;-70
2021/12/27 01:01:52;;;;;;;2.90;1.00;;;6.70;98.00;;;;;;5071755;28;20856;-69
2021/12/27 01:04:19;;;;;;;1.10;0.93;;;6.70;98.00;;;;;;5070701;28;20445;-70
2021/12/27 01:06:46;;;;;;;1.33;1.10;;;6.70;98.00;;;;;;5071866;28;20485;-70
2021/12/27 01:09:26;;;;;;;3.43;1.93;;;6.70;98.00;;;;;;5070473;28;20467;-69
2021/12/27 01:12:10;;;;;;;2.37;1.30;;;6.60;98.00;;;;;;5071902;28;20470;-71
2021/12/27 01:14:42;;;;;;;1.37;1.20;;;6.60;98.00;;;;;;5071737;28;20488;-70
2021/12/27 01:17:10;;;;;;;1.63;1.10;;;6.70;98.00;;;;;;5071974;28;20457;-70
2021/12/27 01:19:37;;;;;;;1.20;1.00;;;6.80;98.00;;;;;;5070472;28;20548;-69
2021/12/27 01:22:05;;;;;;;1.53;1.17;;;6.80;98.00;;;;;;5072023;28;20466;-69
2021/12/27 01:24:33;;;;;;;1.20;1.13;;;6.80;98.00;;;;;;5070729;28;20511;-70
2021/12/27 01:27:02;;;;;;;1.27;1.23;;;6.90;98.00;;;;;;5071673;28;20495;-69
2021/12/27 01:29:30;;;;;;;1.30;1.00;;;7.00;98.00;;;;;;5071857;28;20472;-70
2021/12/27 01:31:57;;;;;;;3.20;1.33;;;7.10;98.00;;;;;;5072158;28;20489;-69
2021/12/27 01:34:26;;;;;;;1.70;1.53;;;7.00;98.00;;;;;;5075424;28;21020;-70
2021/12/27 01:36:56;;;;;;;1.40;1.27;;;7.10;98.00;;;;;;5075632;28;20458;-69
2021/12/27 01:39:24;;;;;;;2.23;1.33;;;7.30;98.00;;;;;;5075558;28;20461;-69
2021/12/27 01:41:52;;;;;;;1.20;1.10;;;7.20;98.00;;;;;;5075543;28;20489;-69
2021/12/27 01:44:19;;;;;;;1.70;1.20;;;7.10;98.00;;;;;;5075462;28;20499;-69
2021/12/27 01:46:46;;;;;;;2.90;1.40;;;7.00;98.00;;;;;;5075464;28;20493;-69
2021/12/27 01:49:13;;;;;;;1.10;1.00;;;7.00;98.00;;;;;;5075478;28;20459;-70
2021/12/27 01:51:41;;;;;;;1.50;1.33;;;6.90;98.00;;;;;;5075291;28;20493;-69
2021/12/27 01:54:08;;;;;;;2.90;1.40;;;6.80;98.00;;;;;;5075244;28;20479;-70
2021/12/27 01:56:35;;;;;;;2.40;1.47;;;6.80;98.00;;;;;;5073924;28;21010;-69
2021/12/27 01:59:04;;;;;;;1.10;1.00;;;6.80;98.00;;;;;;5075015;28;20547;-70
2021/12/27 02:01:32;;;;;;;1.10;1.00;;;6.80;98.00;;;;;;5075321;28;21114;-70
2021/12/27 02:03:59;;;;;;;1.10;1.07;;;6.80;98.00;;;;;;5075137;28;20466;-71
2021/12/27 02:06:27;;;;;;;1.87;1.53;;;6.80;98.00;;;;;;5075120;28;20904;-69
2021/12/27 02:08:55;;;;;;;2.07;1.50;;;6.90;98.00;;;;;;5074977;28;20504;-69
2021/12/27 02:11:22;;;;;;;1.10;1.00;;;6.90;98.00;;;;;;5074761;28;20452;-70
2021/12/27 02:13:50;;;;;;;2.57;1.10;;;7.00;98.00;;;;;;5075045;28;20484;-69
2021/12/27 02:16:20;;;;;;;1.27;1.23;;;7.10;98.00;;;;;;5075110;28;20859;-69
2021/12/27 02:18:48;;;;;;;1.20;1.20;;;7.20;98.00;;;;;;5074758;28;20540;-69
2021/12/27 02:21:19;;;;;;;1.57;1.20;;;7.10;98.00;;;;;;5074920;28;20858;-70
2021/12/27 02:23:48;;;;;;;1.23;1.10;;;7.00;98.00;;;;;;5074928;28;20451;-69
2021/12/27 02:26:16;;;;;;;1.10;1.07;;;7.00;98.00;;;;;;5074818;28;20942;-71
2021/12/27 02:28:43;;;;;;;2.03;1.43;;;7.00;98.00;;;;;;5074587;28;20449;-71
2021/12/27 02:31:18;;;;;;;1.10;1.00;;;6.90;98.00;;;;;;5074689;28;21052;-69
2021/12/27 02:33:45;;;;;;;2.50;1.77;;;6.80;98.00;;;;;;5074537;28;20455;-69
2021/12/27 02:36:13;;;;;;;2.50;1.43;;;6.80;98.00;;;;;;5074541;28;20521;-70
2021/12/27 02:38:44;;;;;;;1.17;1.13;;;6.90;98.00;;;;;;5074644;28;20461;-70
2021/12/27 02:41:12;;;;;;;1.20;1.10;;;6.90;98.00;;;;;;5074923;28;20928;-71
2021/12/27 02:43:42;;;;;;;1.83;1.37;;;6.90;98.00;;;;;;5074471;28;20501;-70
2021/12/27 02:46:10;;;;;;;1.10;0.90;;;7.00;98.00;;;;;;5074575;28;20864;-69
2021/12/27 02:48:39;;;;;;;1.43;1.20;;;7.00;98.00;;;;;;5074577;28;20489;-69
2021/12/27 02:51:07;;;;;;;1.10;1.00;;;7.00;98.00;;;;;;5074415;28;20531;-70
2021/12/27 02:53:34;;;;;;;1.43;1.40;;;6.90;98.00;;;;;;5074168;28;20455;-69
2021/12/27 02:56:04;;;;;;;2.17;1.17;;;6.90;98.00;;;;;;5073087;28;20918;-70
2021/12/27 02:58:32;;;;;;;1.10;1.00;;;6.90;98.00;;;;;;5073903;28;20934;-70
2021/12/27 03:01:04;;;;;;;7.43;1.70;;;6.90;98.00;;;;;;5074128;28;21048;-68
2021/12/27 03:03:31;;;;;;;1.30;1.10;;;6.90;98.00;;;;;;5074084;28;20542;-69
2021/12/27 03:05:58;;;;;;;1.40;1.23;;;6.90;98.00;;;;;;5073976;28;20485;-70
2021/12/27 03:08:26;;;;;;;2.33;1.23;;;6.90;98.00;;;;;;5073676;28;20504;-70
2021/12/27 03:10:55;;;;;;;1.67;1.40;;;6.90;98.00;;;;;;5074043;28;20496;-69
2021/12/27 03:13:24;;;;;;;2.53;1.50;;;6.90;98.00;;;;;;5073887;28;20521;-70
2021/12/27 03:15:52;;;;;;;2.03;1.77;;;6.80;98.00;;;;;;5073518;28;21097;-69
2021/12/27 03:18:20;;;;;;;1.10;1.10;;;6.80;98.00;;;;;;5072594;28;20955;-69
2021/12/27 03:20:47;;;;;;;1.10;1.10;;;6.70;98.00;;;;;;5073643;28;20555;-70
2021/12/27 03:23:15;;;;;;;2.13;1.37;;;6.70;98.00;;;;;;5072865;28;20497;-69
2021/12/27 03:25:42;;;;;;;1.63;1.53;;;6.60;98.00;;;;;;5073392;28;20491;-70
2021/12/27 03:28:09;;;;;;;2.50;1.60;;;6.60;98.00;;;;;;5073561;28;20518;-70
2021/12/27 03:30:37;;;;;;;1.73;1.53;;;6.70;98.00;;;;;;5073272;28;20544;-69
2021/12/27 03:33:05;;;;;;;1.73;1.63;;;6.70;98.00;;;;;;5073445;28;20464;-70
2021/12/27 03:35:37;;;;;;;1.40;1.10;;;7.00;98.00;;;;;;5073236;28;20908;-69
2021/12/27 03:38:07;;;;;;;3.57;1.57;;;7.10;98.00;;;;;;5073017;28;20459;-69
2021/12/27 03:40:35;;;;;;;2.13;1.40;;;7.20;98.00;;;;;;5072037;28;20969;-69
2021/12/27 03:43:03;;;;;;;4.33;1.73;;;7.10;98.00;;;;;;5073354;28;20499;-69
2021/12/27 03:45:35;;;;;;;1.47;1.20;;;7.00;98.00;;;;;;5073182;28;20457;-70
2021/12/27 03:48:04;;;;;;;1.20;1.00;;;6.90;98.00;;;;;;5073442;28;20499;-69
2021/12/27 03:50:31;;;;;;;1.10;1.00;;;6.80;98.00;;;;;;5073143;28;20488;-69
2021/12/27 03:52:59;;;;;;;1.40;1.30;;;6.80;98.00;;;;;;5072996;28;20460;-69
2021/12/27 03:55:26;;;;;;;1.60;1.13;;;6.70;98.00;;;;;;5071372;28;20813;-69
2021/12/27 03:58:06;;;;;;;1.10;1.00;;;6.70;98.00;;;;;;5073344;28;20927;-69
2021/12/27 04:00:46;;;;;;;1.10;1.10;;;6.60;98.00;;;;;;5072910;28;20468;-69
2021/12/27 04:03:17;;;;;;;2.33;1.20;;;6.70;98.00;;;;;;5073179;28;20467;-71
2021/12/27 04:05:44;;;;;;;1.10;1.03;;;6.80;98.00;;;;;;5073020;28;20809;-70
2021/12/27 04:08:12;;;;;;;1.20;1.20;;;6.70;98.00;;;;;;5072722;28;20526;-70
2021/12/27 04:10:40;;;;;;;3.17;2.00;;;6.60;98.00;;;;;;5072876;28;20492;-69
2021/12/27 04:13:09;;;;;;;1.63;1.50;;;6.60;98.00;;;;;;5072997;28;20487;-69
2021/12/27 04:15:36;;;;;;;1.67;1.37;;;6.60;98.00;;;;;;5072681;28;20484;-70
2021/12/27 04:18:04;;;;;;;1.70;1.40;;;6.70;98.00;;;;;;5072673;28;20486;-69
2021/12/27 04:20:33;;;;;;;1.20;1.10;;;6.70;98.00;;;;;;5072595;28;20504;-70
2021/12/27 04:23:00;;;;;;;1.20;1.10;;;6.60;98.00;;;;;;5072417;28;20511;-69
2021/12/27 04:25:27;;;;;;;1.40;1.27;;;6.60;98.00;;;;;;5072399;28;21016;-69
2021/12/27 04:27:54;;;;;;;1.50;1.27;;;6.60;98.00;;;;;;5072333;28;20489;-69
2021/12/27 04:30:21;;;;;;;1.50;1.40;;;6.50;98.00;;;;;;5072295;28;20482;-70
2021/12/27 04:32:50;;;;;;;1.10;1.00;;;6.60;98.00;;;;;;5072158;28;20488;-70
2021/12/27 04:35:18;;;;;;;1.13;1.03;;;6.50;98.00;;;;;;5072229;28;20503;-69
2021/12/27 04:37:49;;;;;;;1.50;1.20;;;6.60;98.00;;;;;;5072360;28;20548;-70
2021/12/27 04:40:19;;;;;;;1.33;1.33;;;6.70;98.00;;;;;;5072152;28;20545;-69
2021/12/27 04:42:51;;;;;;;1.20;1.00;;;6.70;98.00;;;;;;5072032;28;20462;-69
2021/12/27 04:45:18;;;;;;;1.10;1.00;;;6.60;98.00;;;;;;5072073;28;20457;-69
2021/12/27 04:47:52;;;;;;;1.30;1.27;;;6.60;98.00;;;;;;5072023;28;20488;-70
2021/12/27 04:50:21;;;;;;;2.80;1.20;;;6.60;98.00;;;;;;5072020;28;20461;-70
2021/12/27 04:52:53;;;;;;;1.67;1.00;;;6.80;98.00;;;;;;5072236;28;20456;-70
2021/12/27 04:55:21;;;;;;;1.97;1.40;;;6.80;98.00;;;;;;5070840;28;20854;-69
2021/12/27 04:57:51;;;;;;;1.33;1.27;;;6.60;98.00;;;;;;5071971;28;20493;-70
2021/12/27 05:00:18;;;;;;;1.20;1.13;;;6.60;98.00;;;;;;5071897;28;20607;-70
2021/12/27 05:02:45;;;;;;;1.20;1.20;;;6.60;98.00;;;;;;5072046;28;20496;-69
2021/12/27 05:05:13;;;;;;;5.13;1.67;;;6.50;98.00;;;;;;5072087;28;20873;-69
2021/12/27 05:07:40;;;;;;;1.30;1.20;;;6.40;98.00;;;;;;5070684;28;20508;-68
2021/12/27 05:10:09;;;;;;;1.10;1.00;;;6.40;98.00;;;;;;5071763;28;20460;-69
2021/12/27 05:12:36;;;;;;;2.50;1.87;;;6.40;98.00;;;;;;5071833;28;20495;-69
2021/12/27 05:15:06;;;;;;;1.60;1.50;;;6.50;98.00;;;;;;5071404;28;21067;-70
2021/12/27 05:17:33;;;;;;;3.47;1.50;;;6.60;98.00;;;;;;5071773;28;20494;-70
2021/12/27 05:20:04;;;;;;;3.47;1.40;;;6.60;98.00;;;;;;5071950;28;20501;-69
2021/12/27 05:22:32;;;;;;;1.13;1.10;;;6.60;98.00;;;;;;5070926;28;20462;-69
2021/12/27 05:25:00;;;;;;;1.33;1.20;;;6.50;98.00;;;;;;5069795;28;20510;-70
2021/12/27 05:27:28;;;;;;;1.10;1.10;;;6.40;98.00;;;;;;5069698;28;20591;-69
2021/12/27 05:29:55;;;;;;;1.43;1.33;;;6.40;98.00;;;;;;5070857;28;20541;-69
2021/12/27 05:32:22;;;;;;;1.13;0.97;;;6.40;98.00;;;;;;5071807;28;20457;-68
2021/12/27 05:34:49;;;;;;;1.20;1.10;;;6.50;98.00;;;;;;5071484;28;20459;-69
2021/12/27 05:37:16;;;;;;;1.70;1.60;;;6.50;98.00;;;;;;5071892;28;20495;-70
2021/12/27 05:39:43;;;;;;;1.67;1.57;;;6.50;98.00;;;;;;5071912;28;20513;-69
2021/12/27 05:42:10;;;;;;;1.50;1.23;;;6.50;98.00;;;;;;5071925;28;20482;-69
2021/12/27 05:44:39;;;;;;;1.13;1.00;;;6.60;98.00;;;;;;5071558;28;20484;-69
2021/12/27 05:47:06;;;;;;;1.10;1.00;;;6.60;98.00;;;;;;5071238;28;20452;-70
2021/12/27 05:49:33;;;;;;;1.10;1.00;;;6.60;98.00;;;;;;5070247;28;20551;-70
2021/12/27 05:52:00;;;;;;;1.93;1.47;;;6.60;98.00;;;;;;5070208;28;20519;-70
2021/12/27 05:54:27;;;;;;;1.10;1.00;;;6.60;98.00;;;;;;5071161;28;20485;-69
2021/12/27 05:56:55;;;;;;;1.10;1.00;;;6.60;98.00;;;;;;5071126;28;20561;-70
2021/12/27 05:59:22;;;;;;;1.30;1.00;;;6.50;98.00;;;;;;5071241;28;20967;-69
2021/12/27 06:01:51;;;;;;;1.20;1.20;;;6.50;98.00;;;;;;5071274;28;20500;-69
2021/12/27 06:04:18;;;;;;;1.10;1.00;;;6.50;98.00;;;;;;5071272;28;21124;-70
2021/12/27 06:06:44;;;;;;;1.40;1.30;;;6.50;98.00;;;;;;5071293;28;20492;-69
2021/12/27 06:09:11;;;;;;;1.20;1.20;;;6.40;98.00;;;;;;5071121;28;20994;-70
2021/12/27 06:11:38;;;;;;;1.30;1.13;;;6.50;98.00;;;;;;5069995;28;20487;-71
2021/12/27 06:14:05;;;;;;;1.40;1.23;;;6.50;98.00;;;;;;5071102;28;20495;-69
2021/12/27 06:16:32;;;;;;;2.03;1.43;;;6.70;98.00;;;;;;5071159;28;20520;-69
2021/12/27 06:19:01;;;;;;;1.10;1.00;;;6.70;98.00;;;;;;5072072;28;20852;-69
2021/12/27 06:21:28;;;;;;;1.20;1.10;;;6.60;98.00;;;;;;5074782;28;20492;-69
2021/12/27 06:23:57;;;;;;;1.10;1.00;;;6.60;98.00;;;;;;5074731;28;20477;-69
2021/12/27 06:26:24;;;;;;;1.20;1.10;;;6.70;98.00;;;;;;5074687;28;20462;-70
2021/12/27 06:28:51;;;;;;;3.57;2.50;;;6.60;98.00;;;;;;5074787;28;20496;-70
2021/12/27 06:31:20;;;;;;;1.10;0.90;;;6.60;98.00;;;;;;5074696;28;20490;-69
2021/12/27 06:33:47;;;;;;;1.63;1.30;;;6.50;98.00;;;;;;5074545;28;20502;-69
2021/12/27 06:36:16;;;;;;;1.20;1.20;;;6.50;98.00;;;;;;5074588;28;20570;-69
2021/12/27 06:38:43;;;;;;;1.10;1.00;;;6.70;98.00;;;;;;5073299;28;20452;-71
2021/12/27 06:41:10;;;;;;;1.30;1.17;;;6.80;98.00;;;;;;5074358;28;20934;-69
2021/12/27 06:43:37;;;;;;;1.20;1.00;;;6.80;98.00;;;;;;5074599;28;20497;-70
2021/12/27 06:46:04;;;;;;;1.20;1.17;;;6.80;98.00;;;;;;5074472;28;20453;-70
2021/12/27 06:48:31;;;;;;;2.37;1.50;;;6.70;98.00;;;;;;5074453;28;20544;-69
2021/12/27 06:50:59;;;;;;;1.20;1.10;;;6.60;98.00;;;;;;5074288;28;20448;-69
2021/12/27 06:53:30;;;;;;;1.40;1.20;;;6.60;98.00;;;;;;5074443;28;20498;-69
2021/12/27 06:56:06;;;;;;;1.20;1.10;;;6.50;98.00;;;;;;5074197;28;20490;-70
2021/12/27 06:58:33;;;;;;;1.33;1.30;;;6.50;98.00;;;;;;5074379;28;20635;-69
2021/12/27 07:01:00;;;;;;;1.10;1.10;;;6.40;98.00;;;;;;5074348;28;20981;-69
2021/12/27 07:03:27;;;;;;;1.43;1.17;;;6.40;98.00;;;;;;5073292;28;21027;-69
2021/12/27 07:05:54;;;;;;;1.50;1.33;;;6.40;98.00;;;;;;5074004;28;20507;-69
2021/12/27 07:08:22;;;;;;;1.10;1.07;;;6.30;98.00;;;;;;5074438;28;20495;-69
2021/12/27 07:10:51;;;;;;;1.30;1.10;;;6.20;98.00;;;;;;5073820;28;20489;-70
2021/12/27 07:13:20;;;;;;;1.90;1.57;;;6.20;98.00;;;;;;5073945;28;20457;-70
2021/12/27 07:15:47;;;;;;;1.10;1.00;;;6.20;98.00;;;;;;5072630;28;20484;-70
2021/12/27 07:18:22;;;;;;;1.50;1.30;;;6.10;98.00;;;;;;5073872;28;20503;-70
2021/12/27 07:20:49;;;;;;;1.40;1.30;;;6.10;98.00;;;;;;5072446;28;20482;-69
2021/12/27 07:23:17;;;;;;;1.43;1.30;;;6.10;98.00;;;;;;5073789;28;20483;-70
2021/12/27 07:25:44;;;;;;;2.27;1.20;;;6.10;98.00;;;;;;5073528;28;20453;-69
2021/12/27 07:28:12;;;;;;;1.30;1.20;;;6.10;98.00;;;;;;5072480;28;20468;-69
2021/12/27 07:30:39;;;;;;;1.10;1.10;;;6.10;98.00;;;;;;5072553;28;20545;-70
2021/12/27 07:33:06;;;;;;;1.10;0.90;;;6.10;98.00;;;;;;5073381;28;20495;-67
2021/12/27 07:35:36;;;;;;;1.17;1.00;;;6.00;98.00;;;;;;5073373;28;20459;-69
2021/12/27 07:38:04;;;;;;;2.90;1.20;;;6.00;98.00;;;;;;5073320;28;20495;-71
2021/12/27 07:40:31;;;;;;;1.30;1.17;;;6.00;98.00;;;;;;5073222;28;20483;-72
2021/12/27 07:42:58;;;;;;;1.30;1.17;;;6.10;98.00;;;;;;5071899;28;20464;-70
2021/12/27 07:45:28;;;;;;;1.40;1.37;;;5.90;98.00;;;;;;5073107;28;20858;-70
2021/12/27 07:47:56;;;;;;;1.10;1.00;;;5.70;98.00;;;;;;5072645;28;20951;-71
2021/12/27 07:50:25;;;;;;;1.20;1.10;;;5.60;98.00;;;;;;5072811;28;20458;-70
2021/12/27 07:52:52;;;;;;;1.20;1.00;;;5.70;98.00;;;;;;5071770;28;20455;-70
2021/12/27 07:55:20;;;;;;;1.10;0.90;;;5.50;98.00;;;;;;5072068;28;20490;-71
2021/12/27 07:57:47;;;;;;;1.20;1.00;;;5.40;98.00;;;;;;5072993;28;20482;-70
2021/12/27 08:00:15;;;;;;;1.20;1.00;;;5.40;98.00;;;;;;5073029;28;20796;-69
2021/12/27 08:02:44;;;;;;;1.20;1.00;;;5.30;98.00;;;;;;5072993;28;20541;-70
2021/12/27 08:05:10;;;;;;;1.40;1.20;;;5.40;98.00;;;;;;5072862;28;20495;-69
2021/12/27 08:07:38;;;;;;;1.10;1.00;;;5.40;98.00;;;;;;5072999;28;20999;-69
2021/12/27 08:10:07;;;;;;;1.43;1.43;;;5.40;98.00;;;;;;5072624;28;20496;-70
2021/12/27 08:12:34;;;;;;;1.30;1.30;;;5.50;98.00;;;;;;5072940;28;20881;-68
2021/12/27 08:15:00;;;;;;;1.10;0.90;;;5.50;98.00;;;;;;5072913;28;20806;-70
2021/12/27 08:17:28;;;;;;;1.40;1.03;;;5.40;98.00;;;;;;5072836;28;20573;-69
2021/12/27 08:19:57;;;;;;;1.30;1.30;;;5.50;98.00;;;;;;5072839;28;20548;-69
2021/12/27 08:22:24;;;;;;;1.20;1.00;;;5.40;98.00;;;;;;5072896;28;20483;-68
2021/12/27 08:24:51;;;;;;;1.80;1.67;;;5.40;98.00;;;;;;5072204;28;21113;-69
2021/12/27 08:27:20;;;;;;;1.20;1.00;;;5.50;98.00;;;;;;5072712;28;20949;-69
2021/12/27 08:29:47;;;;;;;2.17;1.30;;;5.70;98.00;;;;;;5072630;28;20456;-69
2021/12/27 08:32:15;;;;;;;2.03;1.10;;;5.70;98.00;;;;;;5071106;28;20468;-69
2021/12/27 08:34:42;;;;;;;1.20;1.20;;;5.70;98.00;;;;;;5072425;28;20464;-71
2021/12/27 08:37:11;;;;;;;2.20;1.37;;;5.70;98.00;;;;;;5071955;28;20512;-69
2021/12/27 08:39:40;;;;;;;1.10;0.90;;;5.80;98.00;;;;;;5072082;28;20827;-70
2021/12/27 08:42:10;;;;;;;1.20;1.00;;;5.70;98.00;;;;;;5072079;28;20459;-68
2021/12/27 08:44:38;;;;;;;1.10;0.90;;;5.70;98.00;;;;;;5071888;28;20491;-67
2021/12/27 08:47:06;;;;;;;1.10;0.97;;;5.80;98.00;;;;;;5069072;28;20957;-71
2021/12/27 08:49:33;;;;;;;3.93;1.10;;;5.80;98.00;;;;;;5067237;28;21370;-70
2021/12/27 08:52:01;;;;;;;2.27;1.50;;;5.90;98.00;;;;;;5069317;28;20487;-71
2021/12/27 08:54:30;;;;;;;1.30;1.20;;;6.10;98.00;;;;;;5069238;28;20542;-67
2021/12/27 08:56:57;;;;;;;1.67;1.10;;;6.20;98.00;;;;;;5068954;28;20502;-69
2021/12/27 08:59:25;;;;;;;1.10;1.00;;;6.30;98.00;;;;;;5069121;28;20567;-68
2021/12/27 09:01:52;;;;;;;2.27;1.63;;;6.30;98.00;;;;;;5069004;28;20458;-68
2021/12/27 09:04:19;;;;;;;4.80;1.50;;;6.20;98.00;;;;;;5069895;28;20499;-69
2021/12/27 09:06:47;;;;;;;3.57;1.40;;;6.30;98.00;;;;;;5068626;28;20899;-68
2021/12/27 09:09:15;;;;;;;1.50;1.30;;;6.50;98.00;;;;;;5069040;28;20494;-69
2021/12/27 09:11:43;;;;;;;1.10;1.00;;;6.40;98.00;;;;;;5068974;28;20566;-67
2021/12/27 09:14:10;;;;;;;1.20;1.20;;;6.30;98.00;;;;;;5069071;28;20481;-69
2021/12/27 09:16:38;;;;;;;1.10;1.10;;;6.30;98.00;;;;;;5067988;28;20523;-70
2021/12/27 09:19:05;;;;;;;1.50;1.40;;;6.30;98.00;;;;;;5069034;28;20492;-67
2021/12/27 09:21:32;;;;;;;1.10;1.00;;;6.40;98.00;;;;;;5068887;28;20555;-69
2021/12/27 09:23:59;;;;;;;1.50;1.30;;;6.50;98.00;;;;;;5068982;28;20463;-68
2021/12/27 09:26:26;;;;;;;1.10;1.10;;;6.60;98.00;;;;;;5068857;28;20545;-68
2021/12/27 09:28:55;;;;;;;1.10;1.00;;;6.70;98.00;;;;;;5068418;28;20537;-70
2021/12/27 09:31:23;;;;;;;1.50;1.40;;;6.60;98.00;;;;;;5067284;28;20457;-69
2021/12/27 09:33:51;;;;;;;1.20;1.00;;;6.60;98.00;;;;;;5068825;28;20915;-67
2021/12/27 09:36:18;;;;;;;1.53;1.30;;;6.70;98.00;;;;;;5068255;28;20479;-68
2021/12/27 09:38:45;;;;;;;2.53;2.17;;;6.80;98.00;;;;;;5068861;28;20490;-67
2021/12/27 09:41:14;;;;;;;1.10;1.00;;;6.90;98.00;;;;;;5068826;28;20901;-67
2021/12/27 09:43:41;;;;;;;1.10;1.10;;;6.90;98.00;;;;;;5067629;28;20494;-68
2021/12/27 09:46:10;;;;;;;1.10;1.10;;;7.00;98.00;;;;;;5068699;28;20454;-67
2021/12/27 09:48:37;;;;;;;1.43;1.23;;;7.00;98.00;;;;;;5068790;28;20467;-67
2021/12/27 09:51:05;;;;;;;2.03;1.53;;;7.20;98.00;;;;;;5066582;28;20492;-68
2021/12/27 09:53:32;;;;;;;1.40;1.30;;;7.30;98.00;;;;;;5069973;28;20540;-68
2021/12/27 09:55:59;;;;;;;1.20;1.20;;;7.40;98.00;;;;;;5071963;28;20485;-67
2021/12/27 09:58:26;;;;;;;1.87;1.20;;;7.40;98.00;;;;;;5072955;28;20590;-68
2021/12/27 10:00:53;;;;;;;1.80;1.50;;;7.40;98.00;;;;;;5072396;28;20540;-68
2021/12/27 10:03:24;;;;;;;2.73;1.53;;;7.40;98.00;;;;;;5071368;28;20565;-67
2021/12/27 10:05:51;;;;;;;1.70;1.47;;;7.50;98.00;;;;;;5071766;28;20520;-67
2021/12/27 10:08:21;;;;;;;1.20;1.20;;;7.50;98.00;;;;;;5071959;28;20960;-68
2021/12/27 10:10:48;;;;;;;1.30;1.10;;;7.50;98.00;;;;;;5071983;28;20548;-67
2021/12/27 10:13:16;;;;;;;1.43;1.00;;;7.40;98.00;;;;;;5072442;28;20872;-68
2021/12/27 10:15:45;;;;;;;1.60;1.13;;;7.40;98.00;;;;;;5070779;28;20475;-68
2021/12/27 10:18:15;;;;;;;1.10;0.90;;;7.40;98.00;;;;;;5072020;28;20493;-67
2021/12/27 10:20:46;;;;;;;1.10;0.90;;;7.40;98.00;;;;;;5072150;28;20457;-68
2021/12/27 10:23:14;;;;;;;1.60;1.50;;;7.40;98.00;;;;;;5072083;28;20853;-67
2021/12/27 10:25:41;;;;;;;1.67;1.20;;;7.50;98.00;;;;;;5070863;28;21104;-67
2021/12/27 10:28:08;;;;;;;1.10;1.00;;;7.50;98.00;;;;;;5072072;28;20491;-67
2021/12/27 10:30:37;;;;;;;1.30;1.07;;;7.40;98.00;;;;;;5072097;28;20492;-67
2021/12/27 10:33:08;;;;;;;1.47;1.10;;;7.50;98.00;;;;;;5071934;28;20958;-67
2021/12/27 10:35:38;;;;;;;1.50;1.37;;;7.60;98.00;;;;;;5071733;28;20552;-68
2021/12/27 10:38:18;;;;;;;1.13;1.07;;;7.60;98.00;;;;;;5071656;28;20528;-67
2021/12/27 10:40:51;;;;;;;1.10;1.00;;;7.70;98.00;;;;;;5071917;28;20547;-67
2021/12/27 10:43:19;;;;;;;1.30;1.13;;;7.70;98.00;;;;;;5072043;28;20498;-67
2021/12/27 10:45:51;;;;;;;1.40;1.20;;;7.90;98.00;;;;;;5071991;28;20455;-68
2021/12/27 10:48:23;;;;;;;1.10;1.00;;;7.90;98.00;;;;;;5071865;28;20481;-67
2021/12/27 10:50:50;;;;;;;1.83;1.70;;;8.10;98.00;;;;;;5063549;28;20486;-67
2021/12/27 10:53:19;;;;;;;4.73;1.67;;;8.10;98.00;;;;;;5071050;28;20461;-67
2021/12/27 10:55:48;;;;;;;1.20;1.10;;;8.10;98.00;;;;;;5070888;28;20483;-67
2021/12/27 10:58:23;;;;;;;1.10;1.03;;;8.20;98.00;;;;;;5069745;28;20533;-68
2021/12/27 11:00:52;;;;;;;1.67;1.20;;;8.30;98.00;;;;;;5063762;28;20492;-67
2021/12/27 11:03:28;;;;;;;1.10;1.00;;;8.40;98.00;;;;;;5071496;28;21293;-67
2021/12/27 11:05:56;;;;;;;1.10;1.00;;;8.50;98.00;;;;;;5069946;28;20489;-67
2021/12/27 11:08:26;;;;;;;1.20;1.10;;;8.70;98.00;;;;;;5071113;28;20530;-69
2021/12/27 11:10:54;;;;;;;1.90;1.30;;;8.80;98.00;;;;;;5071352;28;20494;-68
2021/12/27 11:13:21;;;;;;;1.20;1.10;;;8.90;98.00;;;;;;5071407;28;20504;-71
2021/12/27 11:15:49;;;;;;;1.60;1.50;;;9.10;98.00;;;;;;5071591;28;20555;-70
2021/12/27 11:18:16;;;;;;;1.40;1.40;;;9.30;98.00;;;;;;5071179;28;20585;-71
2021/12/27 11:20:47;;;;;;;1.73;1.20;;;9.40;98.00;;;;;;5071294;28;20462;-71
2021/12/27 11:23:15;;;;;;;2.03;1.33;;;9.50;98.00;;;;;;5070776;28;20466;-71
2021/12/27 11:25:48;;;;;;;1.70;1.20;;;9.80;98.00;;;;;;5072501;28;20495;-71
2021/12/27 11:28:39;;;;;;;1.27;1.13;;;9.90;98.00;;;;;;5073118;28;20444;-71
2021/12/27 11:31:08;;;;;;;1.10;1.00;;;10.10;98.00;;;;;;5071019;28;20543;-71
2021/12/27 11:33:54;;;;;;;1.30;1.30;;;10.30;98.00;;;;;;5070466;28;20548;-71
2021/12/27 11:36:22;;;;;;;1.47;1.20;;;10.50;98.00;;;;;;5070619;28;20481;-70
2021/12/27 11:38:49;;;;;;;1.10;1.00;;;10.60;98.00;;;;;;5070904;28;20498;-71
2021/12/27 11:41:33;;;;;;;1.40;1.07;;;10.60;98.00;;;;;;5070465;28;20883;-71
2021/12/27 11:44:02;;;;;;;1.10;1.03;;;10.60;98.00;;;;;;5063001;28;20491;-71
2021/12/27 11:46:32;;;;;;;1.30;1.20;;;10.50;98.00;;;;;;5070279;28;20518;-71
2021/12/27 11:49:00;;;;;;;1.70;1.47;;;10.50;98.00;;;;;;5070483;28;20468;-72
2021/12/27 11:51:34;;;;;;;1.30;1.20;;;10.60;98.00;;;;;;5067983;28;20484;-71
2021/12/27 11:54:03;;;;;;;1.20;1.10;;;10.60;98.00;;;;;;5070570;28;20547;-72
2021/12/27 11:56:49;;;;;;;1.50;1.30;;;10.50;98.00;;;;;;5070188;28;20499;-72
2021/12/27 11:59:42;;;;;;;2.20;1.20;;;10.40;98.00;;;;;;5070067;28;20549;-71
2021/12/27 12:02:29;;;;;;;1.33;1.20;;;10.40;98.00;;;;;;5067740;28;20928;-71
2021/12/27 12:04:59;;;;;;;1.20;1.03;;;10.30;98.00;;;;;;5061931;28;20450;-71
2021/12/27 12:07:49;;;;;;;1.50;1.33;;;10.40;98.00;;;;;;5070304;28;20492;-70
2021/12/27 12:10:18;;;;;;;1.20;1.10;;;10.30;98.00;;;;;;5069900;28;20941;-70
2021/12/27 12:13:19;;;;;;;2.80;1.47;;;10.20;98.00;;;;;;5069903;28;20540;-71
2021/12/27 12:16:06;;;;;;;1.20;1.00;;;10.20;98.00;;;;;;5069458;28;20528;-71
2021/12/27 12:18:36;;;;;;;1.10;0.90;;;10.30;98.00;;;;;;5069900;28;20498;-71
2021/12/27 12:21:04;;;;;;;1.17;0.93;;;10.40;98.00;;;;;;5070052;28;20462;-71
2021/12/27 12:23:36;;;;;;;1.20;1.00;;;10.40;98.00;;;;;;5069998;28;20485;-71
2021/12/27 12:26:05;;;;;;;1.20;1.13;;;10.40;98.00;;;;;;5069851;28;20472;-72
2021/12/27 12:28:45;;;;;;;1.57;1.30;;;10.60;98.00;;;;;;5069898;28;20470;-69
2021/12/27 12:31:12;;;;;;;1.93;1.43;;;10.60;98.00;;;;;;5069954;28;20495;-69
2021/12/27 12:33:39;;;;;;;1.53;1.30;;;10.70;98.00;;;;;;5069754;28;20512;-70
2021/12/27 12:36:06;;;;;;;2.70;1.30;;;10.60;98.00;;;;;;5069794;28;20506;-70
2021/12/27 12:38:35;;;;;;;1.20;1.00;;;10.60;98.00;;;;;;5069748;28;21158;-70
2021/12/27 12:41:08;;;;;;;1.30;1.27;;;10.50;98.00;;;;;;5069609;28;21048;-70
2021/12/27 12:43:43;;;;;;;1.20;1.10;;;10.60;98.00;;;;;;5069853;28;20515;-71
2021/12/27 12:46:18;;;;;;;2.50;1.17;;;10.50;98.00;;;;;;5069388;28;20452;-70
2021/12/27 12:48:57;;;;;;;1.20;1.10;;;10.60;98.00;;;;;;5069378;28;20593;-71
2021/12/27 12:51:32;;;;;;;1.20;1.00;;;10.60;98.00;;;;;;5067415;28;20542;-71
2021/12/27 12:53:59;;;;;;;1.20;1.20;;;10.60;98.00;;;;;;5069356;28;20526;-70
2021/12/27 12:56:30;;;;;;;1.20;1.20;;;10.50;98.00;;;;;;5069052;28;20489;-70
2021/12/27 12:58:58;;;;;;;1.30;1.00;;;10.40;98.00;;;;;;5069167;28;20575;-70
2021/12/27 13:01:27;;;;;;;1.20;1.00;;;10.40;98.00;;;;;;5068870;28;21120;-70
2021/12/27 13:03:59;;;;;;;1.30;1.10;;;10.40;98.00;;;;;;5068228;28;20950;-70